Time;durP1;ratioP1;P1;durP2;ratioP2;P2;SDS_P1;SDS_P2;PMS_P1;PMS_P2;Temp;Humidity;BMP_temperature;BMP_pressure;BME280_temperature;BME280_humidity;BME280_pressure;Samples;Min_cycle;Max_cycle;Signal;HPM_P1;HPM_P2
2021/07/09 00:02:06;;;;;;;11.77;10.10;;;9.80;99.90;;;;;;5050621;28;20483;-85
2021/07/09 00:04:33;;;;;;;11.00;9.65;;;9.70;99.90;;;;;;5048125;28;20432;-85
2021/07/09 00:07:00;;;;;;;13.50;10.90;;;9.70;99.90;;;;;;5057382;28;20405;-86
2021/07/09 00:09:28;;;;;;;11.40;10.02;;;9.80;99.90;;;;;;5062567;28;20399;-85
2021/07/09 00:11:56;;;;;;;11.88;10.68;;;9.80;99.90;;;;;;5065268;28;20452;-84
2021/07/09 00:14:30;;;;;;;14.18;10.48;;;9.80;99.90;;;;;;5060769;28;20394;-85
2021/07/09 00:16:58;;;;;;;13.85;10.70;;;9.80;99.90;;;;;;5059948;28;20389;-85
2021/07/09 00:19:25;;;;;;;12.45;10.70;;;9.80;99.90;;;;;;5060122;28;20387;-84
2021/07/09 00:21:52;;;;;;;13.80;10.13;;;9.90;99.90;;;;;;5049815;28;20793;-84
2021/07/09 00:24:20;;;;;;;17.88;10.32;;;9.90;99.90;;;;;;5051162;28;20973;-83
2021/07/09 00:26:47;;;;;;;13.82;10.30;;;10.10;99.90;;;;;;5058564;28;20486;-84
2021/07/09 00:29:14;;;;;;;11.35;9.90;;;10.10;99.90;;;;;;5063590;28;20449;-83
2021/07/09 00:31:41;;;;;;;13.87;10.07;;;10.10;99.90;;;;;;5064762;28;20455;-83
2021/07/09 00:34:08;;;;;;;14.23;10.15;;;10.20;99.90;;;;;;5069543;28;20730;-85
2021/07/09 00:36:37;;;;;;;13.00;9.48;;;10.20;99.90;;;;;;5055389;28;20804;-85
2021/07/09 00:39:07;;;;;;;10.77;9.50;;;10.20;99.90;;;;;;5062141;28;20399;-83
2021/07/09 00:41:35;;;;;;;9.68;8.73;;;10.30;99.90;;;;;;5059221;28;20395;-85
2021/07/09 00:44:02;;;;;;;11.40;8.70;;;10.30;99.90;;;;;;5052595;28;20886;-84
2021/07/09 00:46:30;;;;;;;11.55;8.20;;;10.30;99.90;;;;;;5056532;28;20403;-84
2021/07/09 00:48:57;;;;;;;12.85;9.45;;;10.30;99.90;;;;;;5062227;28;20400;-84
2021/07/09 00:51:25;;;;;;;13.32;10.55;;;10.30;99.90;;;;;;5053641;28;20395;-85
2021/07/09 00:53:52;;;;;;;12.23;10.32;;;10.30;99.90;;;;;;5066497;28;20414;-85
2021/07/09 00:56:20;;;;;;;11.70;9.50;;;10.30;99.90;;;;;;5059487;28;20414;-87
2021/07/09 00:58:48;;;;;;;12.13;9.60;;;10.30;99.90;;;;;;5053411;28;20394;-86
2021/07/09 01:01:15;;;;;;;13.70;9.85;;;10.30;99.90;;;;;;5050753;28;20390;-85
2021/07/09 01:03:42;;;;;;;12.20;9.77;;;10.40;99.90;;;;;;5076531;28;20415;-86
2021/07/09 01:06:10;;;;;;;10.80;7.45;;;10.40;99.90;;;;;;5036974;28;20411;-86
2021/07/09 01:08:37;;;;;;;7.47;6.78;;;10.50;99.90;;;;;;5062652;28;20432;-85
2021/07/09 01:11:06;;;;;;;8.47;6.63;;;10.60;99.90;;;;;;5057878;28;20444;-86
2021/07/09 01:13:34;;;;;;;8.07;6.22;;;10.60;99.90;;;;;;5050069;28;20728;-84
2021/07/09 01:16:01;;;;;;;7.45;6.40;;;10.60;99.90;;;;;;5055973;28;20436;-86
2021/07/09 01:18:28;;;;;;;8.27;7.37;;;10.70;99.90;;;;;;5050679;28;20975;-85
2021/07/09 01:20:55;;;;;;;6.07;5.57;;;10.70;99.90;;;;;;5071945;28;20374;-85
2021/07/09 01:23:28;;;;;;;8.60;5.95;;;10.80;99.90;;;;;;5057438;28;20414;-84
2021/07/09 01:25:56;;;;;;;10.48;6.50;;;10.80;99.90;;;;;;5068481;28;20800;-83
2021/07/09 01:28:23;;;;;;;5.27;4.57;;;10.80;99.90;;;;;;5063198;28;20874;-83
2021/07/09 01:30:50;;;;;;;7.70;4.60;;;10.90;99.90;;;;;;5056643;28;20455;-82
2021/07/09 01:33:17;;;;;;;6.10;4.30;;;11.00;99.90;;;;;;5073946;28;20376;-83
2021/07/09 01:35:44;;;;;;;5.38;4.13;;;11.00;99.90;;;;;;5051236;28;20384;-84
2021/07/09 01:38:12;;;;;;;6.93;3.70;;;11.10;99.90;;;;;;5063973;28;20392;-84
2021/07/09 01:40:40;;;;;;;7.03;4.18;;;11.20;99.90;;;;;;5067607;28;20584;-83
2021/07/09 01:43:07;;;;;;;6.78;4.20;;;11.10;99.90;;;;;;5051505;28;20411;-83
2021/07/09 01:45:35;;;;;;;5.78;3.88;;;11.20;99.90;;;;;;5049718;28;20435;-85
2021/07/09 01:48:05;;;;;;;11.20;4.50;;;11.20;99.90;;;;;;5054671;28;20407;-82
2021/07/09 01:50:33;;;;;;;5.25;3.80;;;11.20;99.90;;;;;;5068120;28;20386;-82
2021/07/09 01:53:00;;;;;;;10.07;4.20;;;11.20;99.90;;;;;;5069413;28;20774;-84
2021/07/09 01:55:28;;;;;;;6.68;4.32;;;11.30;99.90;;;;;;5052273;28;20426;-83
2021/07/09 01:57:55;;;;;;;6.55;4.63;;;11.30;99.90;;;;;;5066548;28;20477;-80
2021/07/09 02:00:26;;;;;;;5.00;4.50;;;11.30;99.90;;;;;;5069796;28;20455;-81
2021/07/09 02:02:53;;;;;;;10.40;4.95;;;11.20;99.90;;;;;;5070325;28;20363;-78
2021/07/09 02:05:23;;;;;;;7.07;4.90;;;11.30;99.90;;;;;;5064568;28;20398;-79
2021/07/09 02:07:54;;;;;;;7.70;5.68;;;11.30;99.90;;;;;;5062519;28;20835;-80
2021/07/09 02:10:26;;;;;;;7.50;5.93;;;11.40;99.90;;;;;;5061056;28;20388;-79
2021/07/09 02:12:54;;;;;;;9.98;8.93;;;11.40;99.90;;;;;;5066707;28;20444;-80
2021/07/09 02:15:25;;;;;;;12.10;9.25;;;11.40;99.90;;;;;;5058421;28;20424;-80
2021/07/09 02:17:52;;;;;;;11.73;10.53;;;11.40;99.90;;;;;;5061341;28;20502;-80
2021/07/09 02:20:21;;;;;;;13.43;10.70;;;11.50;99.90;;;;;;5066390;28;20771;-81
2021/07/09 02:22:49;;;;;;;10.38;9.20;;;11.60;99.90;;;;;;5066664;28;20758;-81
2021/07/09 02:25:17;;;;;;;13.15;8.75;;;11.70;99.90;;;;;;5063102;28;20434;-80
2021/07/09 02:27:47;;;;;;;14.77;9.77;;;11.70;99.90;;;;;;5054844;28;20405;-80
2021/07/09 02:30:16;;;;;;;12.77;10.18;;;11.80;99.90;;;;;;5054921;28;20381;-82
2021/07/09 02:32:44;;;;;;;13.70;10.40;;;11.80;99.90;;;;;;5061061;28;20389;-82
2021/07/09 02:35:22;;;;;;;12.65;9.65;;;11.90;99.90;;;;;;5070061;28;20409;-81
2021/07/09 02:37:51;;;;;;;15.17;9.27;;;11.90;99.90;;;;;;5063126;28;20386;-81
2021/07/09 02:40:20;;;;;;;8.95;7.65;;;12.00;99.90;;;;;;5056963;28;20455;-79
2021/07/09 02:42:50;;;;;;;8.63;7.55;;;12.00;99.90;;;;;;5062155;28;20771;-79
2021/07/09 02:45:18;;;;;;;10.00;8.23;;;12.00;99.90;;;;;;5053490;28;20897;-79
2021/07/09 02:47:46;;;;;;;9.70;7.35;;;12.00;99.90;;;;;;5053518;28;20415;-80
2021/07/09 02:50:16;;;;;;;8.25;6.07;;;12.00;99.90;;;;;;5050434;28;20746;-80
2021/07/09 02:52:44;;;;;;;8.13;6.57;;;12.10;99.90;;;;;;5056273;28;20391;-79
2021/07/09 02:55:12;;;;;;;7.95;6.40;;;12.10;99.90;;;;;;5062455;28;20380;-79
2021/07/09 02:57:41;;;;;;;7.53;6.72;;;12.10;99.90;;;;;;5063707;28;20390;-79
2021/07/09 03:00:13;;;;;;;9.85;7.60;;;12.10;99.90;;;;;;5055525;28;20411;-79
2021/07/09 03:02:40;;;;;;;8.80;7.10;;;12.10;99.90;;;;;;5053589;28;20421;-80
2021/07/09 03:05:08;;;;;;;11.10;7.38;;;12.10;99.90;;;;;;5061752;28;20407;-80
2021/07/09 03:07:36;;;;;;;8.75;7.22;;;12.00;99.90;;;;;;5062836;28;20388;-79
2021/07/09 03:10:09;;;;;;;12.27;7.55;;;12.00;99.90;;;;;;5055012;28;20894;-80
2021/07/09 03:12:38;;;;;;;10.13;7.82;;;12.10;99.90;;;;;;5055045;28;20434;-80
2021/07/09 03:15:08;;;;;;;12.82;7.93;;;12.10;99.90;;;;;;5063517;28;20518;-80
2021/07/09 03:17:35;;;;;;;11.45;7.82;;;12.10;99.90;;;;;;5048743;28;20892;-79
2021/07/09 03:20:04;;;;;;;8.90;8.00;;;12.10;99.90;;;;;;5049359;28;20433;-79
2021/07/09 03:22:31;;;;;;;11.35;8.20;;;12.10;99.90;;;;;;5056094;28;20925;-80
2021/07/09 03:24:58;;;;;;;10.70;8.97;;;12.10;99.90;;;;;;5054492;28;20399;-79
2021/07/09 03:27:24;;;;;;;12.63;8.97;;;12.10;99.90;;;;;;5066469;28;20465;-79
2021/07/09 03:29:55;;;;;;;10.15;8.98;;;12.00;99.90;;;;;;5067105;28;20369;-83
2021/07/09 03:32:22;;;;;;;13.82;10.75;;;12.00;99.90;;;;;;5055914;28;20394;-79
2021/07/09 03:34:49;;;;;;;15.43;11.73;;;12.00;99.90;;;;;;5050070;28;20441;-82
2021/07/09 03:37:16;;;;;;;16.08;11.80;;;11.90;99.90;;;;;;5049389;28;20372;-82
2021/07/09 03:39:43;;;;;;;15.75;13.07;;;11.80;99.90;;;;;;5063479;28;20382;-82
2021/07/09 03:42:10;;;;;;;17.52;13.43;;;11.70;99.90;;;;;;5061213;28;20396;-82
2021/07/09 03:44:37;;;;;;;17.98;13.85;;;11.70;99.90;;;;;;5056465;28;20403;-79
2021/07/09 03:47:04;;;;;;;18.77;15.07;;;11.60;99.90;;;;;;5066864;28;20382;-79
2021/07/09 03:49:36;;;;;;;19.70;16.00;;;11.40;99.90;;;;;;5059158;28;20405;-81
2021/07/09 03:52:03;;;;;;;20.75;16.70;;;11.30;99.90;;;;;;5051466;28;20391;-81
2021/07/09 03:54:31;;;;;;;24.55;17.92;;;11.30;99.90;;;;;;5060981;28;20391;-82
2021/07/09 03:56:57;;;;;;;21.67;18.30;;;11.20;99.90;;;;;;5058924;28;20376;-81
2021/07/09 03:59:24;;;;;;;20.88;18.58;;;11.20;99.90;;;;;;5069163;28;20397;-82
2021/07/09 04:01:51;;;;;;;23.23;19.00;;;11.10;99.90;;;;;;5057855;28;20461;-81
2021/07/09 04:04:18;;;;;;;24.13;20.05;;;11.20;99.90;;;;;;5054903;28;20427;-81
2021/07/09 04:06:45;;;;;;;26.88;21.10;;;11.10;99.90;;;;;;5054704;28;20421;-81
2021/07/09 04:09:12;;;;;;;24.13;20.33;;;11.10;99.90;;;;;;5053541;28;20466;-81
2021/07/09 04:11:39;;;;;;;27.23;24.30;;;11.20;99.90;;;;;;5063595;28;20480;-81
2021/07/09 04:14:06;;;;;;;27.23;23.63;;;11.00;99.90;;;;;;5055552;28;20400;-82
2021/07/09 04:16:33;;;;;;;25.67;22.90;;;11.00;99.90;;;;;;5054581;28;20401;-82
2021/07/09 04:19:00;;;;;;;28.67;23.95;;;11.00;99.90;;;;;;5048776;28;20394;-82
2021/07/09 04:21:27;;;;;;;26.67;23.77;;;11.10;99.90;;;;;;5055115;28;20405;-81
2021/07/09 04:23:54;;;;;;;27.88;24.85;;;11.10;99.90;;;;;;5061032;28;20378;-81
2021/07/09 04:26:21;;;;;;;28.00;24.83;;;11.10;99.90;;;;;;5063448;28;20406;-81
2021/07/09 04:28:48;;;;;;;26.80;24.00;;;11.20;99.90;;;;;;5053831;28;20866;-80
2021/07/09 04:31:15;;;;;;;28.52;23.88;;;11.10;99.90;;;;;;5053522;28;20380;-82
2021/07/09 04:33:45;;;;;;;29.88;26.33;;;11.10;99.90;;;;;;5067247;28;20383;-81
2021/07/09 04:36:12;;;;;;;30.67;27.48;;;11.00;99.90;;;;;;5058616;28;20831;-79
2021/07/09 04:38:39;;;;;;;30.83;27.63;;;10.90;99.90;;;;;;5064531;28;20480;-80
2021/07/09 04:41:06;;;;;;;31.05;27.83;;;10.90;99.90;;;;;;5049708;28;20884;-80
2021/07/09 04:43:38;;;;;;;32.83;29.33;;;10.80;99.90;;;;;;5060014;28;20453;-81
2021/07/09 04:46:06;;;;;;;37.60;33.63;;;10.80;99.90;;;;;;5086088;28;20842;-82
2021/07/09 04:48:34;;;;;;;34.70;31.00;;;10.60;99.90;;;;;;5065609;28;20430;-80
2021/07/09 04:51:04;;;;;;;37.27;33.33;;;10.60;99.90;;;;;;5052081;28;20513;-81
2021/07/09 04:53:32;;;;;;;38.30;32.25;;;10.70;99.90;;;;;;5061942;28;20702;-83
2021/07/09 04:55:59;;;;;;;39.28;35.15;;;10.60;99.90;;;;;;5050297;28;20985;-83
2021/07/09 04:58:26;;;;;;;37.17;33.20;;;10.60;99.90;;;;;;5052961;28;20415;-82
2021/07/09 05:00:53;;;;;;;37.75;33.40;;;10.60;99.90;;;;;;5053208;28;20422;-81
2021/07/09 05:03:19;;;;;;;37.33;33.28;;;10.60;99.90;;;;;;5050251;28;20404;-80
2021/07/09 05:05:47;;;;;;;38.08;33.35;;;10.50;99.90;;;;;;5047865;28;20423;-80
2021/07/09 05:08:14;;;;;;;39.13;32.80;;;10.50;99.90;;;;;;5054862;28;20390;-80
2021/07/09 05:10:41;;;;;;;38.30;33.67;;;10.40;99.90;;;;;;5055222;28;20398;-79
2021/07/09 05:13:08;;;;;;;38.50;34.40;;;10.40;99.90;;;;;;5067312;28;20370;-80
2021/07/09 05:15:35;;;;;;;43.00;35.55;;;10.40;99.90;;;;;;5066503;28;20437;-79
2021/07/09 05:18:02;;;;;;;38.08;32.90;;;10.40;99.90;;;;;;5071585;28;20465;-79
2021/07/09 05:20:29;;;;;;;37.80;33.70;;;10.40;99.90;;;;;;5058889;28;20386;-79
2021/07/09 05:22:56;;;;;;;36.58;32.60;;;10.40;99.90;;;;;;5065448;28;20390;-81
2021/07/09 05:25:23;;;;;;;36.17;32.30;;;10.40;99.90;;;;;;5059717;28;20857;-80
2021/07/09 05:27:50;;;;;;;38.03;33.83;;;10.40;99.90;;;;;;5054580;28;20382;-80
2021/07/09 05:30:17;;;;;;;36.83;32.83;;;10.40;99.90;;;;;;5059076;28;20394;-78
2021/07/09 05:32:46;;;;;;;40.00;32.45;;;10.40;99.90;;;;;;5054919;28;20399;-79
2021/07/09 05:35:13;;;;;;;35.53;31.77;;;10.40;99.90;;;;;;5061944;28;20479;-79
2021/07/09 05:37:41;;;;;;;34.78;30.38;;;10.50;99.90;;;;;;5074795;28;20400;-80
2021/07/09 05:40:08;;;;;;;35.63;30.45;;;10.50;99.90;;;;;;5067123;28;20422;-79
2021/07/09 05:42:37;;;;;;;32.15;27.40;;;10.40;99.90;;;;;;5068185;28;20398;-79
2021/07/09 05:45:04;;;;;;;33.75;29.05;;;10.50;99.90;;;;;;5052235;28;20895;-82
2021/07/09 05:47:31;;;;;;;33.85;27.83;;;10.50;99.90;;;;;;5061069;28;20865;-81
2021/07/09 05:49:59;;;;;;;30.92;26.55;;;10.50;99.90;;;;;;5055635;28;20440;-80
2021/07/09 05:52:26;;;;;;;31.23;26.83;;;10.60;99.90;;;;;;5067419;28;20385;-80
2021/07/09 05:54:52;;;;;;;31.45;27.27;;;10.60;99.90;;;;;;5051990;28;20391;-80
2021/07/09 05:57:19;;;;;;;31.63;26.20;;;10.60;99.90;;;;;;5053013;28;20376;-80
2021/07/09 05:59:46;;;;;;;29.05;24.95;;;10.60;99.90;;;;;;5050866;28;20383;-80
2021/07/09 06:02:13;;;;;;;29.88;25.10;;;10.60;99.90;;;;;;5053865;28;20606;-80
2021/07/09 06:04:40;;;;;;;30.15;24.67;;;10.60;99.90;;;;;;5056138;28;20838;-80
2021/07/09 06:07:07;;;;;;;28.80;24.35;;;10.60;99.90;;;;;;5051096;28;20427;-79
2021/07/09 06:09:34;;;;;;;26.90;24.00;;;10.60;99.90;;;;;;5058975;28;20374;-81
2021/07/09 06:12:01;;;;;;;29.50;26.20;;;10.60;99.90;;;;;;5054940;28;20378;-81
2021/07/09 06:14:28;;;;;;;28.33;25.33;;;10.60;99.90;;;;;;5054596;28;20384;-81
2021/07/09 06:16:55;;;;;;;28.38;24.70;;;10.60;99.90;;;;;;5053951;28;20398;-81
2021/07/09 06:19:22;;;;;;;31.25;24.20;;;10.60;99.90;;;;;;5052246;28;20474;-81
2021/07/09 06:21:49;;;;;;;28.95;23.40;;;10.50;99.90;;;;;;5051784;28;20376;-80
2021/07/09 06:24:17;;;;;;;24.80;19.88;;;10.50;99.90;;;;;;5065912;28;20393;-80
2021/07/09 06:26:44;;;;;;;24.75;20.30;;;10.50;99.90;;;;;;5069124;28;20444;-81
2021/07/09 06:29:11;;;;;;;23.92;19.92;;;10.40;99.90;;;;;;5058944;28;20407;-81
2021/07/09 06:31:38;;;;;;;20.80;18.25;;;10.40;99.90;;;;;;5061892;28;20378;-81
2021/07/09 06:34:05;;;;;;;21.47;18.60;;;10.40;99.90;;;;;;5069031;28;20396;-81
2021/07/09 06:36:32;;;;;;;23.40;18.43;;;10.40;99.90;;;;;;5069046;28;20370;-81
2021/07/09 06:38:59;;;;;;;23.08;17.73;;;10.40;99.90;;;;;;5064267;28;20390;-81
2021/07/09 06:41:26;;;;;;;23.88;19.48;;;10.40;99.90;;;;;;5058659;28;20382;-81
2021/07/09 06:43:53;;;;;;;20.92;18.65;;;10.30;99.90;;;;;;5063751;28;20388;-82
2021/07/09 06:46:20;;;;;;;21.90;18.38;;;10.30;99.90;;;;;;5070005;28;20402;-82
2021/07/09 06:48:47;;;;;;;29.40;21.33;;;10.30;99.90;;;;;;5069889;28;20366;-81
2021/07/09 06:51:14;;;;;;;30.08;21.55;;;10.30;99.90;;;;;;5065845;28;20384;-81
2021/07/09 06:53:41;;;;;;;29.27;22.05;;;10.30;99.90;;;;;;5048425;28;20382;-81
2021/07/09 06:56:08;;;;;;;27.27;23.20;;;10.30;99.90;;;;;;5054129;28;20479;-81
2021/07/09 06:58:35;;;;;;;27.00;22.73;;;10.30;99.90;;;;;;5054461;28;20392;-81
2021/07/09 07:01:02;;;;;;;28.35;22.42;;;10.30;99.90;;;;;;5063112;28;20410;-81
2021/07/09 07:03:29;;;;;;;25.75;22.83;;;10.30;99.90;;;;;;5057011;28;20391;-81
2021/07/09 07:05:56;;;;;;;27.17;23.65;;;10.40;99.90;;;;;;5060664;28;20411;-81
2021/07/09 07:08:26;;;;;;;32.30;25.60;;;10.30;99.90;;;;;;5067494;28;20381;-82
2021/07/09 07:10:55;;;;;;;31.05;24.52;;;10.30;99.90;;;;;;5065862;28;20389;-81
2021/07/09 07:13:23;;;;;;;26.08;21.77;;;10.30;99.90;;;;;;5055068;28;20479;-82
2021/07/09 07:15:51;;;;;;;26.65;22.17;;;10.30;99.90;;;;;;5061678;28;20394;-82
2021/07/09 07:18:18;;;;;;;24.88;20.75;;;10.40;99.90;;;;;;5058879;28;20377;-82
2021/07/09 07:20:47;;;;;;;24.40;20.67;;;10.30;99.90;;;;;;5060469;28;20444;-82
2021/07/09 07:23:16;;;;;;;24.88;21.65;;;10.30;99.90;;;;;;5060385;28;20397;-82
2021/07/09 07:25:44;;;;;;;29.85;22.40;;;10.30;99.90;;;;;;5066028;28;20555;-81
2021/07/09 07:28:13;;;;;;;30.63;22.80;;;10.30;99.90;;;;;;5066452;28;20386;-82
2021/07/09 07:30:41;;;;;;;33.13;24.10;;;10.30;99.90;;;;;;5054814;28;20397;-81
2021/07/09 07:33:09;;;;;;;30.95;23.35;;;10.30;99.90;;;;;;5069204;28;20387;-80
2021/07/09 07:35:38;;;;;;;30.37;22.70;;;10.30;99.90;;;;;;5060887;28;20499;-80
2021/07/09 07:38:06;;;;;;;27.10;22.42;;;10.30;99.90;;;;;;5049271;28;20470;-81
2021/07/09 07:40:33;;;;;;;23.85;18.95;;;10.30;99.90;;;;;;5051455;28;20487;-81
2021/07/09 07:43:00;;;;;;;20.83;18.23;;;10.30;99.90;;;;;;5048984;28;20387;-80
2021/07/09 07:45:28;;;;;;;25.08;18.35;;;10.30;99.90;;;;;;5048964;28;20395;-79
2021/07/09 07:47:55;;;;;;;20.95;17.80;;;10.30;99.90;;;;;;5049178;28;20458;-80
2021/07/09 07:50:22;;;;;;;24.55;16.88;;;10.30;99.90;;;;;;5055659;28;20428;-80
2021/07/09 07:52:49;;;;;;;18.15;16.17;;;10.20;99.90;;;;;;5060174;28;20391;-81
2021/07/09 07:55:17;;;;;;;18.40;15.68;;;10.20;99.90;;;;;;5058060;28;20494;-80
2021/07/09 07:57:44;;;;;;;19.67;14.97;;;10.20;99.90;;;;;;5067591;28;20456;-81
2021/07/09 08:00:12;;;;;;;18.30;14.93;;;10.20;99.90;;;;;;5069225;28;20423;-81
2021/07/09 08:02:41;;;;;;;16.98;14.02;;;10.20;99.90;;;;;;5067913;28;20439;-80
2021/07/09 08:05:09;;;;;;;16.00;14.05;;;10.20;99.90;;;;;;5069157;28;20471;-80
2021/07/09 08:07:36;;;;;;;15.85;12.90;;;10.20;99.90;;;;;;5069368;28;20373;-80
2021/07/09 08:10:04;;;;;;;15.23;12.52;;;10.20;99.90;;;;;;5064076;28;20395;-78
2021/07/09 08:12:31;;;;;;;14.88;11.40;;;10.20;99.90;;;;;;5058007;28;20373;-79
2021/07/09 08:14:58;;;;;;;15.05;11.93;;;10.20;99.90;;;;;;5065839;28;20474;-81
2021/07/09 08:17:25;;;;;;;12.82;11.52;;;10.20;99.90;;;;;;5059554;28;20684;-80
2021/07/09 08:19:52;;;;;;;12.60;10.90;;;10.20;99.90;;;;;;5059609;28;20919;-79
2021/07/09 08:22:19;;;;;;;14.20;11.32;;;10.20;99.90;;;;;;5068552;28;20393;-79
2021/07/09 08:24:46;;;;;;;14.88;11.23;;;10.20;99.90;;;;;;5068742;28;20463;-80
2021/07/09 08:27:13;;;;;;;13.27;10.07;;;10.20;99.90;;;;;;5051718;28;20457;-79
2021/07/09 08:29:40;;;;;;;15.10;9.52;;;10.20;99.90;;;;;;5047341;28;20783;-80
2021/07/09 08:32:07;;;;;;;11.00;9.18;;;10.20;99.90;;;;;;5061399;28;20417;-80
2021/07/09 08:34:36;;;;;;;10.07;8.87;;;10.10;99.90;;;;;;5054343;28;20388;-82
2021/07/09 08:37:04;;;;;;;8.60;7.75;;;10.10;99.90;;;;;;5048602;28;20890;-79
2021/07/09 08:39:31;;;;;;;10.40;7.90;;;10.10;99.90;;;;;;5070087;28;20845;-78
2021/07/09 08:41:58;;;;;;;11.88;10.48;;;10.00;99.90;;;;;;5057242;28;20746;-78
2021/07/09 08:44:25;;;;;;;11.32;8.55;;;10.00;99.90;;;;;;5063383;28;20394;-78
2021/07/09 08:46:56;;;;;;;12.80;8.57;;;10.00;99.90;;;;;;5059720;28;20433;-78
2021/07/09 08:49:23;;;;;;;9.95;8.90;;;10.00;99.90;;;;;;5048087;28;20789;-79
2021/07/09 08:51:51;;;;;;;10.30;8.93;;;10.00;99.90;;;;;;5059756;28;20398;-79
2021/07/09 08:54:19;;;;;;;11.75;9.63;;;10.00;99.90;;;;;;5051339;28;20391;-79
2021/07/09 08:56:48;;;;;;;12.50;8.77;;;10.00;99.90;;;;;;5058976;28;20480;-79
2021/07/09 08:59:15;;;;;;;12.02;8.55;;;10.00;99.90;;;;;;5056668;28;20435;-80
2021/07/09 09:01:51;;;;;;;9.27;7.93;;;10.00;99.90;;;;;;5062930;28;20394;-79
2021/07/09 09:04:27;;;;;;;9.93;8.15;;;10.00;99.90;;;;;;5051773;28;20387;-79
2021/07/09 09:07:09;;;;;;;10.30;8.23;;;10.00;99.90;;;;;;5057293;28;20392;-79
2021/07/09 09:09:38;;;;;;;11.35;8.40;;;10.00;99.90;;;;;;5056608;28;20390;-79
2021/07/09 09:12:10;;;;;;;10.65;7.93;;;10.00;99.90;;;;;;5056430;28;20387;-79
2021/07/09 09:14:40;;;;;;;10.85;8.30;;;10.00;99.90;;;;;;5054662;28;20393;-78
2021/07/09 09:17:33;;;;;;;10.48;7.85;;;10.00;99.90;;;;;;5061028;28;20501;-79
2021/07/09 09:20:13;;;;;;;12.40;8.18;;;10.00;99.90;;;;;;5054063;28;20409;-79
2021/07/09 09:22:52;;;;;;;12.77;8.90;;;10.00;99.90;;;;;;5052261;28;20394;-79
2021/07/09 09:25:25;;;;;;;9.73;8.70;;;10.00;99.90;;;;;;5073633;28;20416;-77
2021/07/09 09:28:14;;;;;;;11.57;8.57;;;10.00;99.90;;;;;;5048467;28;20380;-78
2021/07/09 09:30:43;;;;;;;10.70;9.60;;;10.00;99.90;;;;;;5075939;28;20475;-78
2021/07/09 09:33:12;;;;;;;12.43;9.50;;;9.90;99.90;;;;;;5055096;28;20792;-78
2021/07/09 09:35:42;;;;;;;12.43;9.88;;;9.90;99.90;;;;;;5055307;28;20420;-78
2021/07/09 09:38:16;;;;;;;13.95;10.35;;;10.00;99.90;;;;;;5051579;28;20386;-79
2021/07/09 09:40:45;;;;;;;13.65;10.25;;;10.00;99.90;;;;;;5054183;28;20854;-78
2021/07/09 09:43:15;;;;;;;14.38;11.25;;;10.00;99.90;;;;;;5053950;28;20492;-79
2021/07/09 09:45:43;;;;;;;15.52;11.10;;;9.90;99.90;;;;;;5060491;28;20758;-80
2021/07/09 09:48:12;;;;;;;16.77;12.27;;;10.00;99.90;;;;;;5055911;28;20398;-79
2021/07/09 09:50:49;;;;;;;13.90;12.35;;;9.90;99.90;;;;;;5059399;28;20409;-80
2021/07/09 09:53:30;;;;;;;13.18;11.77;;;9.90;99.90;;;;;;5065340;28;20392;-79
2021/07/09 09:56:06;;;;;;;13.70;11.52;;;9.90;99.90;;;;;;5047976;28;20522;-79
2021/07/09 09:58:33;;;;;;;12.43;10.88;;;9.90;99.90;;;;;;5047942;28;20443;-80
2021/07/09 10:01:00;;;;;;;13.73;11.00;;;9.90;99.90;;;;;;5054812;28;20449;-79
2021/07/09 10:03:27;;;;;;;13.77;11.57;;;9.80;99.90;;;;;;5046696;28;20399;-79
2021/07/09 10:05:57;;;;;;;15.80;11.55;;;9.80;99.90;;;;;;5047262;28;20402;-80
2021/07/09 10:08:24;;;;;;;14.20;10.63;;;9.80;99.90;;;;;;5065351;28;20386;-79
2021/07/09 10:10:52;;;;;;;12.73;11.43;;;9.80;99.90;;;;;;5067191;28;20447;-79
2021/07/09 10:13:22;;;;;;;14.15;10.80;;;9.80;99.90;;;;;;5066882;28;20392;-79
2021/07/09 10:15:51;;;;;;;14.68;11.68;;;9.70;99.90;;;;;;5055973;28;20450;-80
2021/07/09 10:18:20;;;;;;;12.80;10.27;;;9.70;99.90;;;;;;5046330;28;20394;-80
2021/07/09 10:20:48;;;;;;;12.38;11.10;;;9.70;99.90;;;;;;5048378;28;20418;-79
2021/07/09 10:23:19;;;;;;;14.40;11.90;;;9.70;99.90;;;;;;5058391;28;20390;-80
2021/07/09 10:25:51;;;;;;;13.97;11.30;;;9.70;99.90;;;;;;5047846;28;20759;-80
2021/07/09 10:28:21;;;;;;;16.27;11.85;;;9.70;99.90;;;;;;5062894;28;20396;-81
2021/07/09 10:30:52;;;;;;;17.90;13.70;;;9.70;99.90;;;;;;5067451;28;20373;-80
2021/07/09 10:33:31;;;;;;;18.00;16.00;;;9.60;99.90;;;;;;5048067;28;20437;-80
2021/07/09 10:36:19;;;;;;;20.92;17.27;;;9.60;99.90;;;;;;5047697;28;20378;-80
2021/07/09 10:38:53;;;;;;;21.38;17.77;;;9.70;99.90;;;;;;5052552;28;20410;-80
2021/07/09 10:41:22;;;;;;;20.60;17.88;;;9.60;99.90;;;;;;5062584;28;20395;-79
2021/07/09 10:44:18;;;;;;;18.38;14.65;;;9.60;99.90;;;;;;5047486;28;20502;-80
2021/07/09 10:46:47;;;;;;;15.77;13.50;;;9.60;99.90;;;;;;5062575;28;20879;-79
2021/07/09 10:49:50;;;;;;;16.63;14.00;;;9.60;99.90;;;;;;5055118;28;20398;-80
2021/07/09 10:52:42;;;;;;;16.52;14.52;;;9.60;99.90;;;;;;5045407;28;20403;-80
2021/07/09 10:55:27;;;;;;;18.85;14.68;;;9.50;99.90;;;;;;5047059;28;20743;-81
2021/07/09 10:58:10;;;;;;;20.33;16.23;;;9.60;99.90;;;;;;5052942;28;20909;-81
2021/07/09 11:00:44;;;;;;;19.95;15.68;;;9.60;99.90;;;;;;5056044;28;20396;-80
2021/07/09 11:03:21;;;;;;;17.75;15.55;;;9.60;99.90;;;;;;5062471;28;20408;-81
2021/07/09 11:05:51;;;;;;;16.25;13.75;;;9.60;99.90;;;;;;5062098;28;20404;-81
2021/07/09 11:08:33;;;;;;;14.80;13.00;;;9.50;99.90;;;;;;5064999;28;20382;-81
2021/07/09 11:11:01;;;;;;;16.83;14.88;;;9.50;99.90;;;;;;5055991;28;20387;-81
2021/07/09 11:13:49;;;;;;;15.48;13.00;;;9.50;99.90;;;;;;5046972;28;20372;-81
2021/07/09 11:16:26;;;;;;;16.13;13.30;;;9.50;99.90;;;;;;5047062;28;20979;-81
2021/07/09 11:19:03;;;;;;;15.00;12.13;;;9.50;99.90;;;;;;5059018;28;20392;-81
2021/07/09 11:21:33;;;;;;;14.35;12.35;;;9.50;99.90;;;;;;5056518;28;20395;-80
2021/07/09 11:24:24;;;;;;;14.40;12.07;;;9.50;99.90;;;;;;5051183;28;20475;-81
2021/07/09 11:27:06;;;;;;;13.97;12.27;;;9.50;99.90;;;;;;5056920;28;20545;-81
2021/07/09 11:29:36;;;;;;;14.18;12.05;;;9.50;99.90;;;;;;5066647;28;20386;-81
2021/07/09 11:32:17;;;;;;;14.53;11.60;;;9.50;99.90;;;;;;5062211;28;20463;-81
2021/07/09 11:34:46;;;;;;;14.98;11.45;;;9.50;99.90;;;;;;5057668;28;20391;-79
2021/07/09 11:37:18;;;;;;;14.48;12.07;;;9.40;99.90;;;;;;5066520;28;20382;-82
2021/07/09 11:39:50;;;;;;;15.00;10.90;;;9.40;99.90;;;;;;5066341;28;20465;-80
2021/07/09 11:42:19;;;;;;;14.15;11.05;;;9.50;99.90;;;;;;5062618;28;20463;-80
2021/07/09 11:44:48;;;;;;;15.07;11.00;;;9.40;99.90;;;;;;5053096;28;20882;-80
2021/07/09 11:47:35;;;;;;;14.63;10.38;;;9.50;99.90;;;;;;5057567;28;20396;-80
2021/07/09 11:50:06;;;;;;;13.55;10.90;;;9.50;99.90;;;;;;5069408;28;20385;-80
2021/07/09 11:52:41;;;;;;;11.57;10.38;;;9.40;99.90;;;;;;5051877;28;20542;-80
2021/07/09 11:55:18;;;;;;;13.25;10.77;;;9.40;99.90;;;;;;5063577;28;20469;-80
2021/07/09 11:57:45;;;;;;;11.90;10.50;;;9.50;99.90;;;;;;5054953;28;20475;-80
2021/07/09 12:00:18;;;;;;;13.82;10.00;;;9.40;99.90;;;;;;5052898;28;20459;-81
2021/07/09 12:02:47;;;;;;;11.18;10.02;;;9.40;99.90;;;;;;5057482;28;20382;-81
2021/07/09 12:05:18;;;;;;;12.02;9.57;;;9.40;99.90;;;;;;5054617;28;20433;-81
2021/07/09 12:07:50;;;;;;;10.85;9.65;;;9.40;99.90;;;;;;5076485;28;20368;-81
2021/07/09 12:10:19;;;;;;;12.13;9.50;;;9.40;99.90;;;;;;5079151;28;20461;-81
2021/07/09 12:12:47;;;;;;;11.77;8.90;;;9.40;99.90;;;;;;5068269;28;20382;-81
2021/07/09 12:15:20;;;;;;;11.75;9.38;;;9.40;99.90;;;;;;5055323;28;20413;-81
2021/07/09 12:17:54;;;;;;;11.07;9.43;;;9.40;99.90;;;;;;5052571;28;20398;-81
2021/07/09 12:20:34;;;;;;;13.35;8.48;;;9.40;99.90;;;;;;5049409;28;20483;-81
2021/07/09 12:23:04;;;;;;;9.85;8.88;;;9.40;99.90;;;;;;5047758;28;20387;-81
2021/07/09 12:25:42;;;;;;;10.27;8.77;;;9.40;99.90;;;;;;5049350;28;20408;-80
2021/07/09 12:28:11;;;;;;;10.73;8.77;;;9.40;99.90;;;;;;5047069;28;20392;-80
2021/07/09 12:30:46;;;;;;;9.20;7.90;;;9.40;99.90;;;;;;5051382;28;20395;-81
2021/07/09 12:33:15;;;;;;;10.57;8.30;;;9.40;99.90;;;;;;5054923;28;20479;-80
2021/07/09 12:35:43;;;;;;;9.07;8.13;;;9.40;99.90;;;;;;5051661;28;22087;-80
2021/07/09 12:38:12;;;;;;;11.63;8.07;;;9.40;99.90;;;;;;5055531;28;20900;-80
2021/07/09 12:40:48;;;;;;;8.90;8.00;;;9.40;99.90;;;;;;5057754;28;20455;-81
2021/07/09 12:43:18;;;;;;;8.40;7.60;;;9.40;99.90;;;;;;5058587;28;20479;-81
2021/07/09 12:46:06;;;;;;;10.10;7.45;;;9.40;99.90;;;;;;5057479;28;20748;-81
2021/07/09 12:48:36;;;;;;;8.57;7.37;;;9.40;99.90;;;;;;5054945;28;20428;-80